createdAt,value
2018-02-25T00:00:06.133Z,8.80
2018-02-25T00:02:33.665Z,9.45
2018-02-25T00:05:01.991Z,8.50
2018-02-25T00:07:29.509Z,9.43
2018-02-25T00:09:57.796Z,8.18
2018-02-25T00:12:25.344Z,8.82
2018-02-25T00:14:53.637Z,8.65
2018-02-25T00:17:21.189Z,7.53
2018-02-25T00:19:49.586Z,10.10
2018-02-25T00:22:28.926Z,9.27
2018-02-25T00:24:56.468Z,9.10
2018-02-25T00:27:24.765Z,9.05
2018-02-25T00:29:52.298Z,9.48
2018-02-25T00:32:19.841Z,9.05
2018-02-25T00:34:47.359Z,10.80
2018-02-25T00:37:14.874Z,12.10
2018-02-25T00:39:42.414Z,11.50
2018-02-25T00:42:09.933Z,11.27
2018-02-25T00:44:38.221Z,12.85
2018-02-25T00:47:05.783Z,12.52
2018-02-25T00:49:34.066Z,10.90
2018-02-25T00:52:02.356Z,10.77
2018-02-25T00:54:29.918Z,11.25
2018-02-25T00:56:57.442Z,10.65
2018-02-25T00:59:24.961Z,10.25
2018-02-25T01:01:52.489Z,10.70
2018-02-25T01:04:20.764Z,9.13
2018-02-25T01:06:49.068Z,11.02
2018-02-25T01:09:16.589Z,11.00
2018-02-25T01:11:44.113Z,11.25
2018-02-25T01:14:11.654Z,9.30
2018-02-25T01:16:39.171Z,10.00
2018-02-25T01:19:07.458Z,9.68
2018-02-25T01:21:34.990Z,9.77
2018-02-25T01:24:02.518Z,14.38
2018-02-25T01:26:30.802Z,14.73
2018-02-25T01:28:59.137Z,11.45
2018-02-25T01:31:26.661Z,11.18
2018-02-25T01:33:54.225Z,12.23
2018-02-25T01:36:21.770Z,11.70
2018-02-25T01:38:50.065Z,10.00
2018-02-25T01:41:17.582Z,10.70
2018-02-25T01:43:45.141Z,8.73
2018-02-25T01:46:12.659Z,9.73
2018-02-25T01:48:40.168Z,9.50
2018-02-25T01:51:07.713Z,10.90
2018-02-25T01:53:35.240Z,9.80
2018-02-25T01:56:02.765Z,9.73
2018-02-25T01:58:30.304Z,10.60
2018-02-25T02:00:57.844Z,10.40
2018-02-25T02:03:25.361Z,12.18
2018-02-25T02:05:52.996Z,11.02
2018-02-25T02:08:20.519Z,11.63
2018-02-25T02:10:48.038Z,10.50
2018-02-25T02:13:15.617Z,10.30
2018-02-25T02:15:43.141Z,12.13
2018-02-25T02:18:10.662Z,11.20
2018-02-25T02:20:39.066Z,9.68
2018-02-25T02:23:06.585Z,10.23
2018-02-25T02:25:34.100Z,11.02
2018-02-25T02:28:01.637Z,11.12
2018-02-25T02:30:29.921Z,10.38
2018-02-25T02:32:57.450Z,9.98
2018-02-25T02:35:25.096Z,10.20
2018-02-25T02:37:52.615Z,10.70
2018-02-25T02:40:20.897Z,10.70
2018-02-25T02:42:49.196Z,10.40
2018-02-25T02:45:16.709Z,9.98
2018-02-25T02:47:45.013Z,9.30
2018-02-25T02:50:12.550Z,9.73
2018-02-25T02:52:40.062Z,10.18
2018-02-25T02:55:07.579Z,10.48
2018-02-25T02:57:35.119Z,10.50
2018-02-25T03:00:02.637Z,9.50
2018-02-25T03:02:30.922Z,9.90
2018-02-25T03:04:58.466Z,10.02
2018-02-25T03:07:26.757Z,9.73
2018-02-25T03:09:55.165Z,9.77
2018-02-25T03:12:22.670Z,9.23
2018-02-25T03:14:50.177Z,9.63
2018-02-25T03:17:17.703Z,9.90
2018-02-25T03:19:45.218Z,9.82
2018-02-25T03:22:12.731Z,9.32
2018-02-25T03:24:40.269Z,10.50
2018-02-25T03:27:07.773Z,9.98
2018-02-25T03:29:36.049Z,9.25
2018-02-25T03:32:04.363Z,11.40
2018-02-25T03:34:31.883Z,11.05
2018-02-25T03:36:59.401Z,10.68
2018-02-25T03:39:26.948Z,10.20
2018-02-25T03:41:54.461Z,11.02
2018-02-25T03:44:21.981Z,10.77
2018-02-25T03:46:49.612Z,9.88
2018-02-25T03:49:17.139Z,11.50
2018-02-25T03:51:44.657Z,10.20
2018-02-25T03:54:13.054Z,9.70
2018-02-25T03:56:40.573Z,10.98
2018-02-25T03:59:08.083Z,11.32
2018-02-25T04:01:35.619Z,11.35
2018-02-25T04:04:03.903Z,11.15
2018-02-25T04:06:32.193Z,11.20
2018-02-25T04:09:00.578Z,11.43
2018-02-25T04:11:28.852Z,11.70
2018-02-25T04:13:57.140Z,12.65
2018-02-25T04:16:24.672Z,10.50
2018-02-25T04:18:52.181Z,12.13
2018-02-25T04:21:19.689Z,11.25
2018-02-25T04:23:47.329Z,11.98
2018-02-25T04:26:14.873Z,11.90
2018-02-25T04:28:42.383Z,11.43
2018-02-25T04:31:09.921Z,12.32
2018-02-25T04:33:37.448Z,12.63
2018-02-25T04:36:04.979Z,11.93
2018-02-25T04:38:32.511Z,12.00
2018-02-25T04:41:00.036Z,12.60
2018-02-25T04:43:27.558Z,12.77
2018-02-25T04:45:55.181Z,12.23
2018-02-25T04:48:22.691Z,11.95
2018-02-25T04:50:50.221Z,11.40
2018-02-25T04:53:17.763Z,11.82
2018-02-25T04:55:45.274Z,11.35
2018-02-25T04:58:12.786Z,12.98
2018-02-25T05:00:40.326Z,12.90
2018-02-25T05:03:08.603Z,12.30
2018-02-25T05:05:36.117Z,13.45
2018-02-25T05:08:03.661Z,12.55
2018-02-25T05:10:31.183Z,13.13
2018-02-25T05:12:58.700Z,12.75
2018-02-25T05:15:26.253Z,13.82
2018-02-25T05:17:53.777Z,13.73
2018-02-25T05:20:21.293Z,14.32
2018-02-25T05:22:48.917Z,13.27
2018-02-25T05:25:17.197Z,13.50
2018-02-25T05:27:45.476Z,15.65
2018-02-25T05:30:13.776Z,13.00
2018-02-25T05:32:41.295Z,13.70
2018-02-25T05:35:08.827Z,12.80
2018-02-25T05:37:36.368Z,13.48
2018-02-25T05:40:03.877Z,14.40
2018-02-25T05:42:31.384Z,13.27
2018-02-25T05:44:59.785Z,14.73
2018-02-25T05:47:27.301Z,13.50
2018-02-25T05:49:54.826Z,14.27
2018-02-25T05:52:22.359Z,14.85
2018-02-25T05:54:50.640Z,13.52
2018-02-25T05:57:18.971Z,14.05
2018-02-25T05:59:46.506Z,14.90
2018-02-25T06:02:14.027Z,13.70
2018-02-25T06:04:42.357Z,16.98
2018-02-25T06:07:09.872Z,14.15
2018-02-25T06:09:37.402Z,14.13
2018-02-25T06:12:05.035Z,14.18
2018-02-25T06:14:32.554Z,13.23
2018-02-25T06:17:00.080Z,13.70
2018-02-25T06:19:27.741Z,14.05
2018-02-25T06:21:55.263Z,14.27
2018-02-25T06:24:23.567Z,14.55
2018-02-25T06:26:51.117Z,13.80
2018-02-25T06:29:19.419Z,13.85
2018-02-25T06:31:46.943Z,13.55
2018-02-25T06:34:14.570Z,13.52
2018-02-25T06:36:42.084Z,14.13
2018-02-25T06:39:10.370Z,13.70
2018-02-25T06:41:37.926Z,15.18
2018-02-25T06:44:06.251Z,16.10
2018-02-25T06:46:33.764Z,13.38
2018-02-25T06:49:01.328Z,14.80
2018-02-25T06:51:28.907Z,14.18
2018-02-25T06:53:57.209Z,21.12
2018-02-25T06:56:24.817Z,20.10
2018-02-25T06:58:52.358Z,19.85
2018-02-25T07:01:19.906Z,18.65
2018-02-25T07:03:47.465Z,16.92
2018-02-25T07:06:15.009Z,23.38
2018-02-25T07:08:43.308Z,20.95
2018-02-25T07:11:10.875Z,25.02
2018-02-25T07:13:38.393Z,20.35
2018-02-25T07:16:05.963Z,15.60
2018-02-25T07:18:34.286Z,16.92
2018-02-25T07:21:01.826Z,18.00
2018-02-25T07:23:30.108Z,18.95
2018-02-25T07:25:58.449Z,18.90
2018-02-25T07:28:25.979Z,16.08
2018-02-25T07:30:53.596Z,15.82
2018-02-25T07:33:21.920Z,15.52
2018-02-25T07:35:49.479Z,16.85
2018-02-25T07:38:17.053Z,16.40
2018-02-25T07:40:44.595Z,16.02
2018-02-25T07:43:12.148Z,18.00
2018-02-25T07:45:40.442Z,17.92
2018-02-25T07:48:08.001Z,16.42
2018-02-25T07:50:35.526Z,16.50
2018-02-25T07:53:03.045Z,14.13
2018-02-25T07:55:30.606Z,13.45
2018-02-25T07:57:58.180Z,14.32
2018-02-25T08:00:25.764Z,13.60
2018-02-25T08:02:53.322Z,15.27
2018-02-25T08:05:20.844Z,14.00
2018-02-25T08:07:49.128Z,12.68
2018-02-25T08:10:16.674Z,15.77
2018-02-25T08:12:44.993Z,11.27
2018-02-25T08:15:12.516Z,10.50
2018-02-25T08:17:40.094Z,11.45
2018-02-25T08:20:08.380Z,12.95
2018-02-25T08:22:36.065Z,12.98
2018-02-25T08:25:03.650Z,14.05
2018-02-25T08:27:31.198Z,13.88
2018-02-25T08:29:58.724Z,13.13
2018-02-25T08:32:27.073Z,13.07
2018-02-25T08:34:55.384Z,14.02
2018-02-25T08:37:23.696Z,13.27
2018-02-25T08:39:51.227Z,11.20
2018-02-25T08:42:19.566Z,14.45
2018-02-25T08:44:47.103Z,14.48
2018-02-25T08:47:14.634Z,16.35
2018-02-25T08:49:42.933Z,14.73
2018-02-25T08:52:10.492Z,13.00
2018-02-25T08:54:38.796Z,11.45
2018-02-25T08:57:06.314Z,9.35
2018-02-25T08:59:33.890Z,11.90
2018-02-25T09:02:02.184Z,11.20
2018-02-25T09:04:30.489Z,10.55
2018-02-25T09:06:58.094Z,9.63
2018-02-25T09:09:25.620Z,10.38
2018-02-25T09:11:53.149Z,8.52
2018-02-25T09:14:21.475Z,7.97
2018-02-25T09:16:49.005Z,8.32
2018-02-25T09:19:16.549Z,7.62
2018-02-25T09:21:44.869Z,9.15
2018-02-25T09:24:12.433Z,7.35
2018-02-25T09:26:39.974Z,7.87
2018-02-25T09:29:07.533Z,7.55
2018-02-25T09:31:35.067Z,8.07
2018-02-25T09:34:02.606Z,7.18
2018-02-25T09:36:30.177Z,7.40
2018-02-25T09:38:57.713Z,6.72
2018-02-25T09:41:25.321Z,7.57
2018-02-25T09:43:52.821Z,7.97
2018-02-25T09:46:20.411Z,8.73
2018-02-25T09:48:47.927Z,7.33
2018-02-25T09:51:16.430Z,7.83
2018-02-25T09:53:44.921Z,11.03
2018-02-25T09:56:13.239Z,8.57
2018-02-25T09:58:40.779Z,8.57
2018-02-25T10:01:08.384Z,9.00
2018-02-25T10:03:35.916Z,7.23
2018-02-25T10:06:03.439Z,8.67
2018-02-25T10:08:31.746Z,9.77
2018-02-25T10:10:59.287Z,8.37
2018-02-25T10:13:27.625Z,8.70
2018-02-25T10:15:55.141Z,8.07
2018-02-25T10:18:23.472Z,8.77
2018-02-25T10:20:51.014Z,10.17
2018-02-25T10:23:18.543Z,8.40
2018-02-25T10:25:46.860Z,10.23
2018-02-25T10:28:14.436Z,9.10
2018-02-25T10:30:42.036Z,8.60
2018-02-25T10:33:09.605Z,8.67
2018-02-25T10:35:37.940Z,8.00
2018-02-25T10:38:05.456Z,8.47
2018-02-25T10:40:33.858Z,8.57
2018-02-25T10:43:02.173Z,9.90
2018-02-25T10:45:29.780Z,10.03
2018-02-25T10:47:57.432Z,8.97
2018-02-25T10:50:24.951Z,8.83
2018-02-25T10:52:52.564Z,10.97
2018-02-25T10:55:20.149Z,10.00
2018-02-25T10:57:48.429Z,10.57
2018-02-25T11:00:22.552Z,10.43
2018-02-25T11:02:50.915Z,11.40
2018-02-25T11:05:18.471Z,11.63
2018-02-25T11:07:46.032Z,11.00
2018-02-25T11:10:13.631Z,10.53
2018-02-25T11:12:41.959Z,12.03
2018-02-25T11:15:09.689Z,11.67
2018-02-25T11:17:37.375Z,10.87
2018-02-25T11:20:04.973Z,10.63
2018-02-25T11:22:32.655Z,11.30
2018-02-25T11:25:01.124Z,10.77
2018-02-25T11:27:28.718Z,10.43
2018-02-25T11:29:57.342Z,10.30
2018-02-25T11:32:24.922Z,12.07
2018-02-25T11:34:52.539Z,11.93
2018-02-25T11:37:21.011Z,9.97
2018-02-25T11:39:48.588Z,12.03
2018-02-25T11:42:16.889Z,16.20
2018-02-25T11:44:44.504Z,14.47
2018-02-25T11:47:11.993Z,12.60
2018-02-25T11:49:40.343Z,11.57
2018-02-25T11:52:07.881Z,12.17
2018-02-25T11:54:35.409Z,12.53
2018-02-25T11:57:03.826Z,14.50
2018-02-25T11:59:31.378Z,12.40
2018-02-25T12:01:59.036Z,14.53
2018-02-25T12:04:26.786Z,13.47
2018-02-25T12:06:55.148Z,11.87
2018-02-25T12:09:23.667Z,12.77
2018-02-25T12:11:51.287Z,11.33
2018-02-25T12:14:19.009Z,13.80
2018-02-25T12:16:46.739Z,12.53
2018-02-25T12:19:14.495Z,11.07
2018-02-25T12:21:42.178Z,12.53
2018-02-25T12:24:10.566Z,12.73
2018-02-25T12:26:38.952Z,11.27
2018-02-25T12:29:07.415Z,12.43
2018-02-25T12:31:35.266Z,11.47
2018-02-25T12:34:03.093Z,11.97
2018-02-25T12:36:30.675Z,14.27
2018-02-25T13:02:57.152Z,11.97
2018-02-25T13:05:24.708Z,10.60
2018-02-25T13:07:52.268Z,11.63
2018-02-25T13:10:19.805Z,12.03
2018-02-25T13:12:48.104Z,11.10
2018-02-25T13:15:15.633Z,12.70
2018-02-25T13:17:43.288Z,12.97
2018-02-25T13:20:10.851Z,12.60
2018-02-25T13:22:38.382Z,12.53
2018-02-25T13:25:05.930Z,12.20
2018-02-25T13:27:33.559Z,13.43
2018-02-25T13:30:01.089Z,13.47
2018-02-25T13:32:28.670Z,15.57
2018-02-25T13:34:56.197Z,13.63
2018-02-25T13:37:23.796Z,17.80
2018-02-25T13:39:51.460Z,12.67
2018-02-25T13:42:19.084Z,16.03
2018-02-25T13:44:46.623Z,13.43
2018-02-25T13:47:14.352Z,14.23
2018-02-25T13:49:41.882Z,12.53
2018-02-25T13:52:09.443Z,17.30
2018-02-25T13:54:37.009Z,14.17
2018-02-25T13:57:04.594Z,12.83
2018-02-25T13:59:32.339Z,13.53
2018-02-25T14:01:59.985Z,12.90
2018-02-25T14:04:28.316Z,14.67
2018-02-25T14:06:55.837Z,14.67
2018-02-25T14:09:23.415Z,13.43
2018-02-25T14:11:50.931Z,15.53
2018-02-25T14:14:18.468Z,13.53
2018-02-25T14:16:46.052Z,13.97
2018-02-25T14:19:13.608Z,14.37
2018-02-25T14:21:41.212Z,15.70
2018-02-25T14:24:09.553Z,11.80
2018-02-25T14:26:37.183Z,12.97
2018-02-25T14:29:04.705Z,12.43
2018-02-25T14:31:32.626Z,14.20
2018-02-25T14:34:00.190Z,17.47
2018-02-25T14:36:27.753Z,21.17
2018-02-25T14:38:55.311Z,19.00
2018-02-25T14:41:22.990Z,17.73
2018-02-25T14:43:50.513Z,15.73
2018-02-25T14:46:18.884Z,16.40
2018-02-25T14:48:46.427Z,15.03
2018-02-25T14:51:13.943Z,14.97
2018-02-25T14:53:41.477Z,14.47
2018-02-25T14:56:09.761Z,16.80
2018-02-25T14:58:38.073Z,15.50
2018-02-25T15:01:05.751Z,15.23
2018-02-25T15:03:33.349Z,12.47
2018-02-25T15:06:01.420Z,13.40
2018-02-25T15:08:29.036Z,14.17
2018-02-25T15:10:56.585Z,15.60
2018-02-25T15:13:25.020Z,15.37
2018-02-25T15:15:52.570Z,15.30
2018-02-25T15:18:20.093Z,14.90
2018-02-25T15:20:48.497Z,17.10
2018-02-25T15:23:16.044Z,16.47
2018-02-25T15:25:44.390Z,16.80
2018-02-25T15:28:12.064Z,16.37
2018-02-25T15:30:39.619Z,16.07
2018-02-25T15:33:07.247Z,18.13
2018-02-25T15:35:35.018Z,17.83
2018-02-25T15:38:02.596Z,15.33
2018-02-25T15:40:30.110Z,18.87
2018-02-25T15:42:58.418Z,14.20
2018-02-25T15:45:25.983Z,13.40
2018-02-25T15:47:53.572Z,12.60
2018-02-25T15:50:21.151Z,13.20
2018-02-25T15:52:48.686Z,12.03
2018-02-25T15:55:16.259Z,12.85
2018-02-25T15:57:43.867Z,13.37
2018-02-25T16:00:12.215Z,14.87
2018-02-25T16:02:39.763Z,14.00
2018-02-25T16:05:07.371Z,14.98
2018-02-25T16:07:34.959Z,15.67
2018-02-25T16:10:02.524Z,14.57
2018-02-25T16:12:30.865Z,14.30
2018-02-25T16:14:58.431Z,16.17
2018-02-25T16:17:26.028Z,16.95
2018-02-25T16:19:54.380Z,18.30
2018-02-25T16:22:21.942Z,19.10
2018-02-25T16:24:49.535Z,20.10
2018-02-25T16:27:17.884Z,21.73
2018-02-25T16:29:45.449Z,21.40
2018-02-25T16:32:12.961Z,17.45
2018-02-25T16:34:40.553Z,15.35
2018-02-25T16:37:08.096Z,13.30
2018-02-25T16:39:35.642Z,12.85
2018-02-25T16:42:03.983Z,14.60
2018-02-25T16:44:31.608Z,14.83
2018-02-25T16:46:59.144Z,14.70
2018-02-25T16:49:27.485Z,15.18
2018-02-25T16:51:55.040Z,13.35
2018-02-25T16:54:22.566Z,14.90
2018-02-25T16:56:50.118Z,15.80
2018-02-25T16:59:18.447Z,23.73
2018-02-25T17:01:45.977Z,23.55
2018-02-25T17:04:13.547Z,22.40
2018-02-25T17:06:41.213Z,22.02
2018-02-25T17:09:08.780Z,19.60
2018-02-25T17:11:36.374Z,20.80
2018-02-25T17:14:03.924Z,21.83
2018-02-25T17:16:31.466Z,18.42
2018-02-25T17:18:59.025Z,14.90
2018-02-25T17:21:27.375Z,16.50
2018-02-25T17:23:54.952Z,17.65
2018-02-25T17:26:22.531Z,20.88
2018-02-25T17:28:50.922Z,16.70
2018-02-25T17:31:18.479Z,15.93
2018-02-25T17:33:46.827Z,19.42
2018-02-25T17:36:14.354Z,17.77
2018-02-25T17:38:41.922Z,20.00
2018-02-25T17:41:10.519Z,17.70
2018-02-25T17:43:38.052Z,15.65
2018-02-25T17:46:05.623Z,14.77
2018-02-25T17:48:33.304Z,14.73
2018-02-25T17:51:00.832Z,15.25
2018-02-25T17:53:29.293Z,16.92
2018-02-25T17:55:56.906Z,17.40
2018-02-25T17:58:24.590Z,18.40
2018-02-25T18:00:52.180Z,15.57
2018-02-25T18:03:19.901Z,17.92
2018-02-25T18:05:47.464Z,20.88
2018-02-25T18:08:14.992Z,20.48
2018-02-25T18:10:42.651Z,24.73
2018-02-25T18:13:10.246Z,24.90
2018-02-25T18:15:37.910Z,23.77
2018-02-25T18:18:06.324Z,23.85
2018-02-25T18:20:33.883Z,34.20
2018-02-25T18:23:01.507Z,28.80
2018-02-25T18:25:29.931Z,28.30
2018-02-25T18:27:57.502Z,31.35
2018-02-25T18:30:25.179Z,35.60
2018-02-25T18:32:52.742Z,39.33
2018-02-25T18:35:20.346Z,41.80
2018-02-25T18:37:48.838Z,35.17
2018-02-25T18:40:17.292Z,33.78
2018-02-25T18:42:44.946Z,36.75
2018-02-25T18:45:12.638Z,35.70
2018-02-25T18:47:41.039Z,34.38
2018-02-25T18:50:09.406Z,33.75
2018-02-25T18:52:37.023Z,32.55
2018-02-25T18:55:04.640Z,30.45
2018-02-25T18:57:32.498Z,28.55
2018-02-25T19:00:00.186Z,28.30
2018-02-25T19:02:28.608Z,29.37
2018-02-25T19:04:56.239Z,30.02
2018-02-25T19:07:24.589Z,27.95
2018-02-25T19:09:52.203Z,26.98
2018-02-25T19:12:19.885Z,27.30
2018-02-25T19:14:47.496Z,28.27
2018-02-25T19:17:15.130Z,28.98
2018-02-25T19:19:43.117Z,28.25
2018-02-25T19:22:10.933Z,29.42
2018-02-25T19:24:38.800Z,30.83
2018-02-25T19:27:07.182Z,32.88
2018-02-25T19:29:35.587Z,48.75
2018-02-25T19:32:03.564Z,54.47
2018-02-25T19:34:31.243Z,55.67
2018-02-25T19:37:04.546Z,56.92
2018-02-25T19:39:37.822Z,56.92
2018-02-25T19:42:05.777Z,59.65
2018-02-25T19:44:34.385Z,67.25
2018-02-25T19:47:01.971Z,69.87
2018-02-25T19:49:29.641Z,69.12
2018-02-25T19:51:57.190Z,71.28
2018-02-25T19:54:24.757Z,68.90
2018-02-25T19:56:52.320Z,66.65
2018-02-25T19:59:19.968Z,65.75
2018-02-25T20:01:47.579Z,65.47
2018-02-25T20:04:15.298Z,63.40
2018-02-25T20:06:42.861Z,62.65
2018-02-25T20:09:10.464Z,62.80
2018-02-25T20:11:38.011Z,63.65
2018-02-25T20:14:05.984Z,72.37
2018-02-25T20:16:33.649Z,50.40
2018-02-25T20:19:01.618Z,37.03
2018-02-25T20:21:29.240Z,37.08
2018-02-25T20:23:56.866Z,26.45
2018-02-25T20:26:24.496Z,27.13
2018-02-25T20:28:52.119Z,31.37
2018-02-25T20:31:19.802Z,30.65
2018-02-25T20:33:47.351Z,30.55
2018-02-25T20:36:15.015Z,29.58
2018-02-25T20:38:42.710Z,33.30
2018-02-25T20:41:11.083Z,32.15
2018-02-25T20:43:38.636Z,31.40
2018-02-25T20:46:06.300Z,32.72
2018-02-25T20:48:33.866Z,32.13
2018-02-25T20:51:01.449Z,33.88
2018-02-25T20:53:30.008Z,32.72
2018-02-25T20:55:57.653Z,36.30
2018-02-25T20:58:25.203Z,36.20
2018-02-25T21:00:52.914Z,32.90
2018-02-25T21:03:20.504Z,32.03
2018-02-25T21:05:48.852Z,35.72
2018-02-25T21:08:16.427Z,34.75
2018-02-25T21:10:43.967Z,35.30
2018-02-25T21:13:11.493Z,38.30
2018-02-25T21:15:39.066Z,41.05
2018-02-25T21:18:06.687Z,38.75
2018-02-25T21:20:34.314Z,40.78
2018-02-25T21:23:01.937Z,41.95
2018-02-25T21:25:30.328Z,43.00
2018-02-25T21:27:58.010Z,44.88
2018-02-25T21:30:25.768Z,41.25
2018-02-25T21:32:54.213Z,40.42
2018-02-25T21:35:21.988Z,41.83
2018-02-25T21:37:49.618Z,44.50
2018-02-25T21:40:17.407Z,42.95
2018-02-25T21:42:45.107Z,47.72
2018-02-25T21:45:13.451Z,47.55
2018-02-25T21:47:41.028Z,47.53
2018-02-25T21:50:08.664Z,49.00
2018-02-25T21:52:36.241Z,48.97
2018-02-25T21:55:03.828Z,51.78
2018-02-25T21:57:37.209Z,47.95
2018-02-25T22:00:10.508Z,49.55
2018-02-25T22:02:43.900Z,50.33
2018-02-25T22:05:11.433Z,51.05
2018-02-25T22:07:39.034Z,48.67
2018-02-25T22:10:06.665Z,48.42
2018-02-25T22:12:34.194Z,47.75
2018-02-25T22:15:02.502Z,49.00
2018-02-25T22:17:30.067Z,50.88
2018-02-25T22:19:57.604Z,49.40
2018-02-25T22:22:25.894Z,49.72
2018-02-25T22:24:54.207Z,49.42
2018-02-25T22:27:21.744Z,47.62
2018-02-25T22:29:49.269Z,50.83
2018-02-25T22:32:16.931Z,49.03
2018-02-25T22:34:44.482Z,49.83
2018-02-25T22:37:12.037Z,52.78
2018-02-25T22:39:39.646Z,50.25
2018-02-25T22:42:07.982Z,49.65
2018-02-25T22:44:35.512Z,49.47
2018-02-25T22:47:03.080Z,52.22
2018-02-25T22:49:30.607Z,50.08
2018-02-25T22:51:58.182Z,48.75
2018-02-25T22:54:26.497Z,45.75
2018-02-25T22:56:54.058Z,50.10
2018-02-25T22:59:21.599Z,48.33
2018-02-25T23:01:50.009Z,45.95
2018-02-25T23:04:17.547Z,48.38
2018-02-25T23:06:45.837Z,45.45
2018-02-25T23:09:14.143Z,47.47
2018-02-25T23:11:41.670Z,46.05
2018-02-25T23:14:09.952Z,48.28
2018-02-25T23:16:38.353Z,41.42
2018-02-25T23:19:05.912Z,44.72
2018-02-25T23:21:33.460Z,44.75
2018-02-25T23:24:01.784Z,41.45
2018-02-25T23:26:29.314Z,39.50
2018-02-25T23:28:57.640Z,39.40
2018-02-25T23:31:25.261Z,39.97
2018-02-25T23:33:53.558Z,40.38
2018-02-25T23:36:21.092Z,37.40
2018-02-25T23:38:49.396Z,37.05
2018-02-25T23:41:16.910Z,37.47
2018-02-25T23:43:44.452Z,34.83
2018-02-25T23:46:12.004Z,36.17
2018-02-25T23:48:39.536Z,38.10
2018-02-25T23:51:07.832Z,36.63
2018-02-25T23:53:35.374Z,36.88
2018-02-25T23:56:03.651Z,35.67
2018-02-25T23:58:31.980Z,35.25
